« 2011年秋の北海道~6日目 | トップページ | お伊勢参り »

2011年9月27日 (火)

2011年秋の北海道~7日目

RJCN 270000Z 24010KT 9999 FEW015 17/13 Q1019
RJCN 270300Z 25004KT 200V310 9999 FEW035 21/12 Q1017
RJCN 270600Z 01007KT 9999 FEW040 21/11 Q1018
RJTT 270600Z 06016KT 9999 FEW035 BKN/// 22/15 Q1017 NOSIG

Dscn8808s

Dscn8812s

Dscn8810s

Dscn8811s

Dscn8815s

Dscn8816s

Dscn8817s

Dscn8823s

Dscn8829s

Dscn8825s

-----------------------------------------------------------------------------

Dscn8831s

Dscn8832s

Dscn8833s

Dscn8836s

Dscn8837s

Dscn8847s

Dscn8862s

Dscn8863s








|

« 2011年秋の北海道~6日目 | トップページ | お伊勢参り »

別海合宿」カテゴリの記事

コメント

コメントを書く



(ウェブ上には掲載しません)


コメントは記事投稿者が公開するまで表示されません。



« 2011年秋の北海道~6日目 | トップページ | お伊勢参り »